createdAt,value
2023-04-02T00:01:19.272Z,100.00
2023-04-02T00:03:46.010Z,100.00
2023-04-02T00:06:32.852Z,100.00
2023-04-02T00:09:29.654Z,100.00
2023-04-02T00:11:57.152Z,100.00
2023-04-02T00:14:34.279Z,100.00
2023-04-02T00:17:04.580Z,100.00
2023-04-02T00:19:37.172Z,100.00
2023-04-02T00:22:07.624Z,100.00
2023-04-02T00:24:34.145Z,100.00
2023-04-02T00:27:00.985Z,100.00
2023-04-02T00:29:27.557Z,100.00
2023-04-02T00:31:54.729Z,100.00
2023-04-02T00:34:26.106Z,100.00
2023-04-02T00:36:53.506Z,100.00
2023-04-02T00:39:24.197Z,100.00
2023-04-02T00:41:54.704Z,100.00
2023-04-02T00:44:22.293Z,100.00
2023-04-02T00:46:50.079Z,100.00
2023-04-02T00:49:22.763Z,100.00
2023-04-02T00:52:00.432Z,100.00
2023-04-02T00:54:31.247Z,100.00
2023-04-02T00:56:58.819Z,100.00
2023-04-02T00:59:31.835Z,100.00
2023-04-02T01:02:26.507Z,100.00
2023-04-02T01:05:16.671Z,100.00
2023-04-02T01:07:55.835Z,100.00
2023-04-02T01:10:43.790Z,100.00
2023-04-02T01:13:24.246Z,100.00
2023-04-02T01:16:02.757Z,100.00
2023-04-02T01:19:01.934Z,100.00
2023-04-02T01:21:37.025Z,100.00
2023-04-02T01:24:07.239Z,100.00
2023-04-02T01:26:54.646Z,100.00
2023-04-02T01:29:33.306Z,100.00
2023-04-02T01:32:06.641Z,100.00
2023-04-02T01:34:33.775Z,100.00
2023-04-02T01:37:22.301Z,100.00
2023-04-02T01:39:55.352Z,100.00
2023-04-02T01:42:37.758Z,100.00
2023-04-02T01:45:13.969Z,100.00
2023-04-02T01:47:41.144Z,100.00
2023-04-02T01:50:21.992Z,100.00
2023-04-02T01:52:52.364Z,100.00
2023-04-02T01:55:25.316Z,100.00
2023-04-02T01:57:54.221Z,100.00
2023-04-02T02:00:22.380Z,100.00
2023-04-02T02:02:51.686Z,100.00
2023-04-02T02:05:23.414Z,100.00
2023-04-02T02:07:52.130Z,100.00
2023-04-02T02:10:26.193Z,100.00
2023-04-02T02:12:53.249Z,100.00
2023-04-02T02:15:22.572Z,100.00
2023-04-02T02:17:50.258Z,100.00
2023-04-02T02:20:17.885Z,100.00
2023-04-02T02:22:47.086Z,100.00
2023-04-02T02:25:24.241Z,100.00
2023-04-02T02:28:08.139Z,100.00
2023-04-02T02:30:44.873Z,100.00
2023-04-02T02:33:22.535Z,100.00
2023-04-02T02:36:00.725Z,100.00
2023-04-02T02:38:30.377Z,100.00
2023-04-02T02:41:13.344Z,100.00
2023-04-02T02:43:44.782Z,100.00
2023-04-02T02:46:16.698Z,100.00
2023-04-02T02:48:44.526Z,100.00
2023-04-02T02:51:21.045Z,100.00
2023-04-02T02:53:52.780Z,100.00
2023-04-02T02:56:22.911Z,100.00
2023-04-02T02:58:52.336Z,100.00
2023-04-02T03:01:19.024Z,100.00
2023-04-02T03:03:47.789Z,100.00
2023-04-02T03:06:16.797Z,100.00
2023-04-02T03:09:10.873Z,100.00
2023-04-02T03:11:44.564Z,100.00
2023-04-02T03:14:22.409Z,100.00
2023-04-02T03:16:55.312Z,100.00
2023-04-02T03:19:33.331Z,100.00
2023-04-02T03:22:08.439Z,100.00
2023-04-02T03:24:42.852Z,100.00
2023-04-02T03:27:09.235Z,100.00
2023-04-02T03:29:41.542Z,100.00
2023-04-02T03:32:22.265Z,100.00
2023-04-02T03:34:55.028Z,100.00
2023-04-02T03:37:28.594Z,100.00
2023-04-02T03:39:57.942Z,100.00
2023-04-02T03:42:26.198Z,100.00
2023-04-02T03:45:05.604Z,100.00
2023-04-02T03:47:40.914Z,100.00
2023-04-02T03:50:11.302Z,100.00
2023-04-02T03:52:38.703Z,100.00
2023-04-02T03:55:19.366Z,100.00
2023-04-02T03:58:07.409Z,100.00
2023-04-02T04:00:49.590Z,100.00
2023-04-02T04:03:39.901Z,100.00
2023-04-02T04:06:12.156Z,100.00
2023-04-02T04:08:46.887Z,100.00
2023-04-02T04:11:20.197Z,100.00
2023-04-02T04:13:56.291Z,100.00
2023-04-02T04:16:30.021Z,100.00
2023-04-02T04:19:06.981Z,100.00
2023-04-02T04:21:39.958Z,100.00
2023-04-02T04:24:17.313Z,100.00
2023-04-02T04:26:43.754Z,100.00
2023-04-02T04:29:47.113Z,100.00
2023-04-02T04:32:32.086Z,100.00
2023-04-02T04:35:06.251Z,100.00
2023-04-02T04:37:39.551Z,100.00
2023-04-02T04:40:17.314Z,99.15
2023-04-02T04:42:45.745Z,99.24
2023-04-02T04:45:29.033Z,99.09
2023-04-02T04:48:04.325Z,99.12
2023-04-02T04:50:52.230Z,99.41
2023-04-02T04:53:24.907Z,100.00
2023-04-02T04:56:15.958Z,99.74
2023-04-02T04:58:59.044Z,99.93
2023-04-02T05:01:45.891Z,99.79
2023-04-02T05:04:19.981Z,99.97
2023-04-02T05:06:54.440Z,100.00
2023-04-02T05:09:41.384Z,99.82
2023-04-02T05:12:16.993Z,98.44
2023-04-02T05:15:08.324Z,97.22
2023-04-02T05:17:48.783Z,97.06
2023-04-02T05:20:25.681Z,97.39
2023-04-02T05:22:58.180Z,97.13
2023-04-02T05:25:29.964Z,97.03
2023-04-02T05:28:11.408Z,97.00
2023-04-02T05:31:05.920Z,97.11
2023-04-02T05:33:37.173Z,97.73
2023-04-02T05:36:26.386Z,97.56
2023-04-02T05:38:54.085Z,98.31
2023-04-02T05:41:36.938Z,97.67
2023-04-02T05:44:21.347Z,97.54
2023-04-02T05:46:54.311Z,97.24
2023-04-02T05:49:25.632Z,97.50
2023-04-02T05:51:57.589Z,96.91
2023-04-02T05:54:30.693Z,96.50
2023-04-02T05:57:23.125Z,96.87
2023-04-02T05:59:57.873Z,96.57
2023-04-02T06:02:39.404Z,96.64
2023-04-02T06:05:12.916Z,96.81
2023-04-02T06:07:56.115Z,96.73
2023-04-02T06:10:33.391Z,96.52
2023-04-02T06:13:07.576Z,96.77
2023-04-02T06:15:36.846Z,96.56
2023-04-02T06:18:13.698Z,96.28
2023-04-02T06:20:40.427Z,95.93
2023-04-02T06:23:19.511Z,95.29
2023-04-02T06:25:51.185Z,95.44
2023-04-02T06:28:24.771Z,95.98
2023-04-02T06:30:54.663Z,95.74
2023-04-02T06:33:21.467Z,95.52
2023-04-02T06:35:51.228Z,95.84
2023-04-02T06:38:23.593Z,95.08
2023-04-02T06:40:59.907Z,95.47
2023-04-02T06:43:42.109Z,95.85
2023-04-02T06:46:24.965Z,96.33
2023-04-02T06:48:56.684Z,95.71
2023-04-02T06:51:25.943Z,95.33
2023-04-02T06:53:53.309Z,95.79
2023-04-02T06:56:39.242Z,95.73
2023-04-02T06:59:07.469Z,95.71
2023-04-02T07:01:40.608Z,94.85
2023-04-02T07:04:07.706Z,95.28
2023-04-02T07:06:34.291Z,94.98
2023-04-02T07:09:01.100Z,95.48
2023-04-02T07:11:27.612Z,95.63
2023-04-02T07:13:54.139Z,95.16
2023-04-02T07:16:25.358Z,95.24
2023-04-02T07:18:55.339Z,95.39
2023-04-02T07:21:22.412Z,94.92
2023-04-02T07:23:48.892Z,95.12
2023-04-02T07:26:22.299Z,95.39
2023-04-02T07:28:49.433Z,95.90
2023-04-02T07:31:25.799Z,95.76
2023-04-02T07:33:54.577Z,95.71
2023-04-02T07:36:23.621Z,95.53
2023-04-02T07:38:50.532Z,95.74
2023-04-02T07:41:17.618Z,95.22
2023-04-02T07:43:44.200Z,95.53
2023-04-02T07:46:12.260Z,95.26
2023-04-02T07:48:40.363Z,95.57
2023-04-02T07:51:25.074Z,94.79
2023-04-02T07:53:55.627Z,95.39
2023-04-02T07:56:24.114Z,94.39
2023-04-02T07:58:50.647Z,95.04
2023-04-02T08:01:24.453Z,95.17
2023-04-02T08:03:54.201Z,94.62
2023-04-02T08:06:21.315Z,95.21
2023-04-02T08:08:47.839Z,95.25
2023-04-02T08:11:14.596Z,95.02
2023-04-02T08:13:41.402Z,94.87
2023-04-02T08:16:08.572Z,94.65
2023-04-02T08:18:36.042Z,94.43
2023-04-02T08:21:03.280Z,95.04
2023-04-02T08:23:29.851Z,94.41
2023-04-02T08:25:56.588Z,94.22
2023-04-02T08:28:23.072Z,94.61
2023-04-02T08:30:50.269Z,94.80
2023-04-02T08:33:18.053Z,94.09
2023-04-02T08:35:49.212Z,93.13
2023-04-02T08:38:17.810Z,92.70
2023-04-02T08:40:48.368Z,91.76
2023-04-02T08:43:18.609Z,92.56
2023-04-02T08:46:08.355Z,92.79
2023-04-02T08:48:40.224Z,91.92
2023-04-02T08:51:17.316Z,90.51
2023-04-02T08:53:43.847Z,91.44
2023-04-02T08:56:20.140Z,90.86
2023-04-02T08:59:16.854Z,90.96
2023-04-02T09:01:56.681Z,91.14
2023-04-02T09:04:26.007Z,91.04
2023-04-02T09:06:56.140Z,90.75
2023-04-02T09:09:23.803Z,90.23
2023-04-02T09:12:04.275Z,90.06
2023-04-02T09:14:36.777Z,90.93
2023-04-02T09:17:03.966Z,90.68
2023-04-02T09:19:38.446Z,89.99
2023-04-02T09:22:30.173Z,90.00
2023-04-02T09:24:58.904Z,90.28
2023-04-02T09:27:34.514Z,89.00
2023-04-02T09:30:10.678Z,88.19
2023-04-02T09:32:58.676Z,87.31
2023-04-02T09:35:28.586Z,88.14
2023-04-02T09:38:07.190Z,88.09
2023-04-02T09:40:42.260Z,87.27
2023-04-02T09:43:12.904Z,87.34
2023-04-02T09:45:41.528Z,87.57
2023-04-02T09:48:58.342Z,87.90
2023-04-02T09:51:31.849Z,88.03
2023-04-02T09:54:04.496Z,87.52
2023-04-02T09:56:35.859Z,87.43
2023-04-02T09:59:04.417Z,87.80
2023-04-02T10:01:34.199Z,86.78
2023-04-02T10:04:03.542Z,86.52
2023-04-02T10:06:31.366Z,86.33
2023-04-02T10:08:58.212Z,85.77
2023-04-02T10:11:43.800Z,84.64
2023-04-02T10:14:23.854Z,82.80
2023-04-02T10:16:53.789Z,81.49
2023-04-02T10:19:23.304Z,79.89
2023-04-02T10:21:50.557Z,79.21
2023-04-02T10:24:17.977Z,79.12
2023-04-02T10:26:56.283Z,78.10
2023-04-02T10:29:31.897Z,79.46
2023-04-02T10:32:05.159Z,79.91
2023-04-02T10:34:43.103Z,75.27
2023-04-02T10:37:25.480Z,76.85
2023-04-02T10:40:11.441Z,76.71
2023-04-02T10:42:55.647Z,77.67
2023-04-02T10:45:40.680Z,76.14
2023-04-02T10:48:25.451Z,75.27
2023-04-02T10:51:06.759Z,73.48
2023-04-02T10:53:45.953Z,72.37
2023-04-02T10:56:14.006Z,71.56
2023-04-02T10:59:08.872Z,71.48
2023-04-02T11:01:36.997Z,71.06
2023-04-02T11:04:15.509Z,71.42
2023-04-02T11:06:46.924Z,69.37
2023-04-02T11:09:18.990Z,69.55
2023-04-02T11:11:49.031Z,70.09
2023-04-02T11:14:29.813Z,70.19
2023-04-02T11:16:59.096Z,70.76
2023-04-02T11:19:27.004Z,67.60
2023-04-02T11:22:11.970Z,67.92
2023-04-02T11:24:49.706Z,68.96
2023-04-02T11:27:24.497Z,69.87
2023-04-02T11:30:22.593Z,69.84
2023-04-02T11:32:50.261Z,66.38
2023-04-02T11:35:31.858Z,66.58
2023-04-02T11:38:06.349Z,65.69
2023-04-02T11:40:56.035Z,66.02
2023-04-02T11:43:35.279Z,67.68
2023-04-02T11:46:30.759Z,68.87
2023-04-02T11:49:33.021Z,68.90
2023-04-02T11:52:10.953Z,66.90
2023-04-02T11:54:38.916Z,66.31
2023-04-02T11:57:28.265Z,65.11
2023-04-02T12:00:18.197Z,64.98
2023-04-02T12:03:03.490Z,65.73
2023-04-02T12:05:43.146Z,65.66
2023-04-02T12:08:24.037Z,63.59
2023-04-02T12:10:54.252Z,63.62
2023-04-02T12:13:39.357Z,62.85
2023-04-02T12:16:10.994Z,62.76
2023-04-02T12:18:44.276Z,63.79
2023-04-02T12:21:19.243Z,64.26
2023-04-02T12:23:48.081Z,62.97
2023-04-02T12:26:42.857Z,63.57
2023-04-02T12:29:29.068Z,62.55
2023-04-02T12:31:57.566Z,62.62
2023-04-02T12:34:29.879Z,61.97
2023-04-02T12:37:02.815Z,62.60
2023-04-02T12:39:33.785Z,63.38
2023-04-02T12:42:00.451Z,63.87
2023-04-02T12:44:29.344Z,61.77
2023-04-02T12:46:57.193Z,61.66
2023-04-02T12:49:42.002Z,62.30
2023-04-02T12:52:17.867Z,62.07
2023-04-02T12:54:51.308Z,62.16
2023-04-02T12:57:30.225Z,64.03
2023-04-02T12:59:59.893Z,65.77
2023-04-02T13:02:29.339Z,60.44
2023-04-02T13:05:01.472Z,59.51
2023-04-02T13:07:33.464Z,59.63
2023-04-02T13:10:03.372Z,62.86
2023-04-02T13:12:34.171Z,62.22
2023-04-02T13:15:03.266Z,60.47
2023-04-02T13:17:42.578Z,63.00
2023-04-02T13:20:32.589Z,61.43
2023-04-02T13:23:00.776Z,59.87
2023-04-02T13:25:35.211Z,60.22
2023-04-02T13:28:02.646Z,57.69
2023-04-02T13:30:29.282Z,61.56
2023-04-02T13:32:56.432Z,61.81
2023-04-02T13:35:22.995Z,59.46
2023-04-02T13:37:49.626Z,59.67
2023-04-02T13:40:18.177Z,58.47
2023-04-02T13:42:45.706Z,60.56
2023-04-02T13:45:37.881Z,59.37
2023-04-02T13:48:05.827Z,60.91
2023-04-02T13:50:34.684Z,58.55
2023-04-02T13:53:09.036Z,58.55
2023-04-02T13:55:40.652Z,57.77
2023-04-02T13:58:07.569Z,56.58
2023-04-02T14:00:37.500Z,57.52
2023-04-02T14:03:10.017Z,57.95
2023-04-02T14:05:55.053Z,56.29
2023-04-02T14:08:59.109Z,59.03
2023-04-02T14:11:39.772Z,58.15
2023-04-02T14:14:12.089Z,56.27
2023-04-02T14:17:06.811Z,57.85
2023-04-02T14:19:58.009Z,55.28
2023-04-02T14:22:50.318Z,58.28
2023-04-02T14:25:31.134Z,55.60
2023-04-02T14:28:06.744Z,54.73
2023-04-02T14:30:56.552Z,55.66
2023-04-02T14:33:39.882Z,57.50
2023-04-02T14:36:37.070Z,57.26
2023-04-02T14:39:37.370Z,57.72
2023-04-02T14:42:13.769Z,57.52
2023-04-02T14:44:50.915Z,55.19
2023-04-02T14:47:29.499Z,54.94
2023-04-02T14:50:02.864Z,55.76
2023-04-02T14:52:33.347Z,54.97
2023-04-02T14:55:04.242Z,54.04
2023-04-02T14:57:36.110Z,54.70
2023-04-02T15:00:03.166Z,52.09
2023-04-02T15:02:51.591Z,54.47
2023-04-02T15:05:28.067Z,51.28
2023-04-02T15:08:03.477Z,49.39
2023-04-02T15:10:32.516Z,46.17
2023-04-02T15:13:04.255Z,48.25
2023-04-02T15:15:52.357Z,47.12
2023-04-02T15:18:18.883Z,46.96
2023-04-02T15:20:57.282Z,48.72
2023-04-02T15:23:36.846Z,46.85
2023-04-02T15:26:24.321Z,45.66
2023-04-02T15:29:28.397Z,48.64
2023-04-02T15:32:05.971Z,43.73
2023-04-02T15:34:44.841Z,43.82
2023-04-02T15:37:28.677Z,43.86
2023-04-02T15:40:19.406Z,42.24
2023-04-02T15:43:10.422Z,42.15
2023-04-02T15:45:45.379Z,43.77
2023-04-02T15:48:29.075Z,43.84
2023-04-02T15:51:21.180Z,43.84
2023-04-02T15:54:00.356Z,40.61
2023-04-02T15:56:48.527Z,38.39
2023-04-02T15:59:27.026Z,38.55
2023-04-02T16:02:16.728Z,38.43
2023-04-02T16:05:00.649Z,39.06
2023-04-02T16:07:48.624Z,38.03
2023-04-02T16:10:40.081Z,38.24
2023-04-02T16:13:17.904Z,36.37
2023-04-02T16:15:53.720Z,35.76
2023-04-02T16:18:47.836Z,36.45
2023-04-02T16:21:29.234Z,35.53
2023-04-02T16:23:55.910Z,35.25
2023-04-02T16:26:34.709Z,34.05
2023-04-02T16:29:07.147Z,32.54
2023-04-02T16:31:48.961Z,33.84
2023-04-02T16:34:42.196Z,34.14
2023-04-02T16:37:17.809Z,33.19
2023-04-02T16:39:59.591Z,33.26
2023-04-02T16:42:43.208Z,32.47
2023-04-02T16:45:17.987Z,32.34
2023-04-02T16:48:03.947Z,32.99
2023-04-02T16:50:45.871Z,32.64
2023-04-02T16:53:47.857Z,33.41
2023-04-02T16:56:45.991Z,32.40
2023-04-02T16:59:50.363Z,33.23
2023-04-02T17:02:51.602Z,32.96
2023-04-02T17:05:41.054Z,33.63
2023-04-02T17:08:16.408Z,35.91
2023-04-02T17:10:51.599Z,40.09
2023-04-02T17:13:24.947Z,43.54
2023-04-02T17:16:03.964Z,45.55
2023-04-02T17:18:32.892Z,46.41
2023-04-02T17:21:05.462Z,45.29
2023-04-02T17:23:55.198Z,46.97
2023-04-02T17:26:27.488Z,47.28
2023-04-02T17:28:57.333Z,48.28
2023-04-02T17:31:30.909Z,48.20
2023-04-02T17:33:57.506Z,49.04
2023-04-02T17:36:38.853Z,50.17
2023-04-02T17:39:08.417Z,52.12
2023-04-02T17:41:51.309Z,51.62
2023-04-02T17:44:57.664Z,54.83
2023-04-02T17:47:40.423Z,55.58
2023-04-02T17:50:31.449Z,56.24
2023-04-02T17:52:59.982Z,57.02
2023-04-02T17:55:40.447Z,58.84
2023-04-02T17:58:40.176Z,58.32
2023-04-02T18:01:13.280Z,60.00
2023-04-02T18:03:49.352Z,59.93
2023-04-02T18:06:38.096Z,60.11
2023-04-02T18:09:21.795Z,62.09
2023-04-02T18:12:03.994Z,61.75
2023-04-02T18:14:42.981Z,62.77
2023-04-02T18:17:40.659Z,62.65
2023-04-02T18:20:31.295Z,62.80
2023-04-02T18:23:16.510Z,63.21
2023-04-02T18:25:54.094Z,65.03
2023-04-02T18:28:39.324Z,64.12
2023-04-02T18:31:16.647Z,64.94
2023-04-02T18:34:09.739Z,65.83
2023-04-02T18:37:00.992Z,65.81
2023-04-02T18:39:40.002Z,66.13
2023-04-02T18:42:06.449Z,65.96
2023-04-02T18:44:58.427Z,66.37
2023-04-02T18:47:35.045Z,66.51
2023-04-02T18:50:24.609Z,66.97
2023-04-02T18:52:51.225Z,68.39
2023-04-02T18:55:21.692Z,67.90
2023-04-02T18:57:51.489Z,67.79
2023-04-02T19:00:36.631Z,68.13
2023-04-02T19:03:24.629Z,68.24
2023-04-02T19:06:00.914Z,68.55
2023-04-02T19:08:27.343Z,69.28
2023-04-02T19:11:16.540Z,69.79
2023-04-02T19:13:45.008Z,69.61
2023-04-02T19:16:48.512Z,69.79
2023-04-02T19:19:28.012Z,69.22
2023-04-02T19:22:45.116Z,69.45
2023-04-02T19:25:18.668Z,70.37
2023-04-02T19:28:01.962Z,70.71
2023-04-02T19:30:39.103Z,71.01
2023-04-02T19:33:33.240Z,71.55
2023-04-02T19:36:08.365Z,71.28
2023-04-02T19:38:50.307Z,72.15
2023-04-02T19:41:37.534Z,72.37
2023-04-02T19:44:09.468Z,72.05
2023-04-02T19:46:37.902Z,71.98
2023-04-02T19:49:28.368Z,72.75
2023-04-02T19:51:55.739Z,72.87
2023-04-02T19:54:22.830Z,73.45
2023-04-02T19:56:49.490Z,73.30
2023-04-02T19:59:18.546Z,73.77
2023-04-02T20:01:46.347Z,74.03
2023-04-02T20:04:13.244Z,74.39
2023-04-02T20:06:39.855Z,74.36
2023-04-02T20:09:08.077Z,74.16
2023-04-02T20:11:36.093Z,73.55
2023-04-02T20:14:03.241Z,73.76
2023-04-02T20:16:29.781Z,72.84
2023-04-02T20:18:56.601Z,72.87
2023-04-02T20:21:23.080Z,73.46
2023-04-02T20:23:53.463Z,73.42
2023-04-02T20:26:19.889Z,72.62
2023-04-02T20:28:46.560Z,73.31
2023-04-02T20:31:16.119Z,73.18
2023-04-02T20:33:44.213Z,73.08
2023-04-02T20:36:15.889Z,72.84
2023-04-02T20:38:43.373Z,72.38
2023-04-02T20:41:10.309Z,72.23
2023-04-02T20:43:37.571Z,72.49
2023-04-02T20:46:05.833Z,72.75
2023-04-02T20:48:34.290Z,73.18
2023-04-02T20:51:02.295Z,73.38
2023-04-02T20:53:29.997Z,73.66
2023-04-02T20:56:10.886Z,73.40
2023-04-02T20:58:38.579Z,73.32
2023-04-02T21:01:10.629Z,74.08
2023-04-02T21:03:37.324Z,74.04
2023-04-02T21:06:04.153Z,74.11
2023-04-02T21:08:30.775Z,74.38
2023-04-02T21:11:05.345Z,74.52
2023-04-02T21:13:33.266Z,74.25
2023-04-02T21:16:00.169Z,74.31
2023-04-02T21:18:26.766Z,74.55
2023-04-02T21:21:01.724Z,74.71
2023-04-02T21:23:28.827Z,74.80
2023-04-02T21:26:06.331Z,75.18
2023-04-02T21:28:34.310Z,74.92
2023-04-02T21:31:05.570Z,74.73
2023-04-02T21:33:35.669Z,75.17
2023-04-02T21:36:09.505Z,74.76
2023-04-02T21:38:36.593Z,74.58
2023-04-02T21:41:20.040Z,74.97
2023-04-02T21:43:48.305Z,74.71
2023-04-02T21:46:20.248Z,75.33
2023-04-02T21:48:48.287Z,75.12
2023-04-02T21:51:17.519Z,75.58
2023-04-02T21:53:45.489Z,75.69
2023-04-02T21:56:18.074Z,75.53
2023-04-02T21:58:46.052Z,75.77
2023-04-02T22:01:23.815Z,75.42
2023-04-02T22:03:53.762Z,75.79
2023-04-02T22:06:21.868Z,75.64
2023-04-02T22:08:54.442Z,76.28
2023-04-02T22:11:24.222Z,76.02
2023-04-02T22:13:51.859Z,75.87
2023-04-02T22:16:23.888Z,76.16
2023-04-02T22:18:52.655Z,76.00
2023-04-02T22:21:20.299Z,76.42
2023-04-02T22:23:47.855Z,76.57
2023-04-02T22:26:16.242Z,76.62
2023-04-02T22:28:43.473Z,76.86
2023-04-02T22:31:14.315Z,76.84
2023-04-02T22:33:41.456Z,77.18
2023-04-02T22:36:08.562Z,76.90
2023-04-02T22:38:36.272Z,77.12
2023-04-02T22:41:11.878Z,77.77
2023-04-02T22:43:39.541Z,77.95
2023-04-02T22:46:08.310Z,77.93
2023-04-02T22:48:35.587Z,78.53
2023-04-02T22:51:02.352Z,78.12
2023-04-02T22:53:29.225Z,78.38
2023-04-02T22:55:55.784Z,78.30
2023-04-02T22:58:22.645Z,78.55
2023-04-02T23:00:49.124Z,78.46
2023-04-02T23:03:15.606Z,78.62
2023-04-02T23:05:42.588Z,78.39
2023-04-02T23:08:09.423Z,78.75
2023-04-02T23:10:36.582Z,78.75
2023-04-02T23:13:03.709Z,78.88
2023-04-02T23:15:30.496Z,79.41
2023-04-02T23:17:57.046Z,79.42
2023-04-02T23:20:23.553Z,79.34
2023-04-02T23:22:50.074Z,79.59
2023-04-02T23:25:16.674Z,79.51
2023-04-02T23:27:43.153Z,79.92
2023-04-02T23:30:09.854Z,80.22
2023-04-02T23:32:36.368Z,80.32
2023-04-02T23:35:02.941Z,80.39
2023-04-02T23:37:29.435Z,79.75
2023-04-02T23:39:55.865Z,80.30
2023-04-02T23:42:22.405Z,80.22
2023-04-02T23:44:48.890Z,79.59
2023-04-02T23:47:15.481Z,79.56
2023-04-02T23:49:47.504Z,79.83
2023-04-02T23:52:15.402Z,79.81
2023-04-02T23:54:41.889Z,80.09
2023-04-02T23:57:08.488Z,79.69
2023-04-02T23:59:35.578Z,80.01
